createdAt,value
2023-04-10T00:01:15.491Z,60.30
2023-04-10T00:03:52.126Z,60.40
2023-04-10T00:06:21.649Z,59.72
2023-04-10T00:08:50.809Z,49.72
2023-04-10T00:11:19.541Z,57.28
2023-04-10T00:13:46.376Z,55.53
2023-04-10T00:16:13.168Z,54.67
2023-04-10T00:18:50.194Z,51.05
2023-04-10T00:21:21.965Z,54.17
2023-04-10T00:23:51.048Z,59.83
2023-04-10T00:26:20.880Z,59.95
2023-04-10T00:28:58.010Z,58.20
2023-04-10T00:31:27.179Z,62.97
2023-04-10T00:33:54.331Z,55.80
2023-04-10T00:36:21.551Z,61.35
2023-04-10T00:38:50.529Z,58.00
2023-04-10T00:41:20.340Z,58.78
2023-04-10T00:43:55.444Z,52.47
2023-04-10T00:46:33.222Z,57.65
2023-04-10T00:49:07.799Z,58.47
2023-04-10T00:54:18.782Z,56.95
2023-04-10T00:56:47.039Z,59.75
2023-04-10T00:59:15.743Z,57.88
2023-04-10T01:01:46.485Z,62.42
2023-04-10T01:04:14.628Z,58.00
2023-04-10T01:07:36.150Z,57.40
2023-04-10T01:10:29.755Z,60.78
2023-04-10T01:13:27.936Z,59.03
2023-04-10T01:16:46.582Z,56.72
2023-04-10T01:20:01.160Z,55.58
2023-04-10T01:23:04.515Z,57.38
2023-04-10T01:26:09.601Z,53.83
2023-04-10T01:29:14.228Z,63.55
2023-04-10T01:32:02.578Z,60.45
2023-04-10T01:34:54.051Z,54.85
2023-04-10T01:37:27.807Z,57.65
2023-04-10T01:40:11.369Z,56.75
2023-04-10T01:43:00.553Z,60.40
2023-04-10T01:45:32.058Z,61.58
2023-04-10T01:48:00.258Z,54.42
2023-04-10T01:50:30.249Z,58.22
2023-04-10T01:53:02.102Z,56.40
2023-04-10T01:55:33.559Z,58.08
2023-04-10T01:58:01.735Z,53.55
2023-04-10T02:00:46.067Z,60.78
2023-04-10T02:03:13.185Z,55.30
2023-04-10T02:06:02.672Z,51.38
2023-04-10T02:09:12.648Z,57.33
2023-04-10T02:12:43.587Z,61.42
2023-04-10T02:15:25.827Z,57.35
2023-04-10T02:18:04.052Z,57.38
2023-04-10T02:20:52.750Z,54.28
2023-04-10T02:23:32.410Z,57.85
2023-04-10T02:26:10.621Z,57.72
2023-04-10T02:28:49.543Z,57.05
2023-04-10T02:31:21.956Z,58.85
2023-04-10T02:34:00.525Z,56.85
2023-04-10T02:36:36.448Z,56.30
2023-04-10T02:39:03.880Z,54.83
2023-04-10T02:41:30.936Z,54.78
2023-04-10T02:43:58.462Z,57.80
2023-04-10T02:46:25.744Z,58.15
2023-04-10T02:48:53.667Z,57.88
2023-04-10T02:51:20.422Z,60.08
2023-04-10T02:53:48.761Z,64.32
2023-04-10T02:56:25.778Z,64.47
2023-04-10T02:58:52.888Z,57.08
2023-04-10T03:01:22.284Z,53.83
2023-04-10T03:03:49.347Z,59.35
2023-04-10T03:06:19.209Z,63.92
2023-04-10T03:08:46.157Z,63.42
2023-04-10T03:11:15.808Z,61.88
2023-04-10T03:13:51.659Z,60.67
2023-04-10T03:16:18.916Z,60.53
2023-04-10T03:18:46.741Z,48.90
2023-04-10T03:21:13.465Z,51.03
2023-04-10T03:23:43.375Z,53.17
2023-04-10T03:26:13.165Z,54.78
2023-04-10T03:28:44.440Z,57.10
2023-04-10T03:31:14.405Z,57.47
2023-04-10T03:33:46.248Z,56.95
2023-04-10T03:36:18.889Z,55.00
2023-04-10T03:38:45.692Z,54.70
2023-04-10T03:41:25.426Z,53.03
2023-04-10T03:43:55.749Z,56.17
2023-04-10T03:46:27.084Z,56.42
2023-04-10T03:49:02.268Z,56.10
2023-04-10T03:51:31.992Z,60.97
2023-04-10T03:53:58.849Z,58.25
2023-04-10T03:56:25.675Z,55.50
2023-04-10T03:58:52.514Z,57.42
2023-04-10T04:01:19.512Z,55.20
2023-04-10T04:03:49.420Z,54.35
2023-04-10T04:06:16.217Z,52.60
2023-04-10T04:08:46.106Z,52.25
2023-04-10T04:11:15.404Z,52.25
2023-04-10T04:13:50.987Z,54.10
2023-04-10T04:16:17.921Z,52.00
2023-04-10T04:18:44.944Z,46.80
2023-04-10T04:21:17.701Z,49.45
2023-04-10T04:23:44.583Z,50.42
2023-04-10T04:26:14.501Z,50.53
2023-04-10T04:28:57.502Z,48.13
2023-04-10T04:31:25.229Z,49.60
2023-04-10T04:33:52.257Z,47.08
2023-04-10T04:36:21.695Z,47.63
2023-04-10T04:38:50.206Z,50.15
2023-04-10T04:41:20.645Z,55.70
2023-04-10T06:39:49.961Z,17.92
2023-04-10T06:42:28.508Z,21.65
2023-04-10T06:44:55.641Z,21.23
2023-04-10T06:47:25.259Z,22.98
2023-04-10T06:49:52.082Z,22.90
2023-04-10T06:52:21.999Z,22.05
2023-04-10T06:54:48.771Z,22.38
2023-04-10T06:57:19.409Z,25.85
2023-04-10T06:59:49.094Z,21.45
2023-04-10T07:02:21.108Z,26.58
2023-04-10T07:04:54.345Z,20.35
2023-04-10T07:07:24.303Z,27.08
2023-04-10T07:09:51.027Z,23.17
2023-04-10T07:12:31.435Z,24.63
2023-04-10T07:15:01.517Z,24.20
2023-04-10T07:17:28.740Z,21.80
2023-04-10T07:19:58.687Z,25.05
2023-04-10T07:22:28.835Z,25.05
2023-04-10T07:24:57.502Z,23.77
2023-04-10T07:27:25.046Z,20.02
2023-04-10T07:29:56.806Z,23.55
2023-04-10T07:32:47.746Z,21.60
2023-04-10T07:35:23.638Z,21.98
2023-04-10T07:37:53.488Z,24.42
2023-04-10T07:40:33.689Z,21.98
2023-04-10T07:43:04.436Z,25.35
2023-04-10T07:45:33.100Z,20.88
2023-04-10T07:48:07.908Z,18.98
2023-04-10T07:50:36.420Z,21.30
2023-04-10T07:53:11.594Z,22.13
2023-04-10T07:56:03.210Z,23.77
2023-04-10T07:58:33.222Z,19.00
2023-04-10T08:01:03.265Z,19.40
2023-04-10T08:03:30.352Z,20.17
2023-04-10T08:05:57.028Z,19.50
2023-04-10T08:08:28.146Z,21.27
2023-04-10T08:10:55.388Z,23.80
2023-04-10T08:13:29.936Z,20.95
2023-04-10T08:16:15.664Z,20.33
2023-04-10T08:18:48.023Z,21.33
2023-04-10T08:21:15.054Z,21.45
2023-04-10T08:23:46.317Z,20.80
2023-04-10T08:26:14.177Z,22.60
2023-04-10T08:29:01.252Z,19.08
2023-04-10T08:31:40.390Z,20.25
2023-04-10T08:34:12.350Z,19.48
2023-04-10T08:36:45.829Z,19.10
2023-04-10T08:39:36.355Z,20.35
2023-04-10T08:42:10.036Z,19.02
2023-04-10T08:44:46.425Z,20.80
2023-04-10T08:47:45.441Z,18.38
2023-04-10T08:50:29.543Z,21.58
2023-04-10T08:53:10.902Z,21.33
2023-04-10T08:55:46.131Z,18.77
2023-04-10T08:58:13.869Z,18.50
2023-04-10T09:00:43.926Z,18.80
2023-04-10T09:03:14.262Z,23.63
2023-04-10T09:05:47.616Z,17.60
2023-04-10T09:08:15.654Z,18.95
2023-04-10T09:11:08.326Z,18.60
2023-04-10T09:13:49.320Z,18.15
2023-04-10T09:16:35.031Z,21.17
2023-04-10T09:19:06.379Z,18.88
2023-04-10T09:21:34.460Z,18.90
2023-04-10T09:24:01.635Z,17.40
2023-04-10T09:26:34.863Z,18.13
2023-04-10T09:29:12.480Z,20.55
2023-04-10T09:31:43.255Z,17.35
2023-04-10T09:34:31.886Z,18.88
2023-04-10T09:37:04.708Z,18.83
2023-04-10T09:39:43.404Z,16.17
2023-04-10T09:42:14.864Z,16.73
2023-04-10T09:44:45.334Z,15.50
2023-04-10T09:47:15.047Z,15.90
2023-04-10T09:50:08.584Z,16.83
2023-04-10T09:52:41.541Z,15.55
2023-04-10T09:55:17.191Z,16.10
2023-04-10T09:57:58.321Z,15.75
2023-04-10T10:00:28.501Z,14.68
2023-04-10T10:03:25.906Z,16.00
2023-04-10T10:05:58.430Z,15.02
2023-04-10T10:08:32.039Z,15.35
2023-04-10T10:11:10.237Z,15.18
2023-04-10T10:13:54.131Z,14.23
2023-04-10T10:16:45.019Z,13.75
2023-04-10T10:19:32.543Z,14.73
2023-04-10T10:22:13.788Z,13.63
2023-04-10T10:24:47.768Z,13.35
2023-04-10T10:27:25.161Z,13.98
2023-04-10T10:29:56.859Z,13.40
2023-04-10T10:32:42.735Z,14.15
2023-04-10T10:35:29.536Z,13.95
2023-04-10T10:38:02.945Z,19.30
2023-04-10T10:41:21.406Z,12.93
2023-04-10T10:44:37.472Z,12.35
2023-04-10T10:47:45.350Z,13.02
2023-04-10T10:50:22.777Z,12.45
2023-04-10T10:53:08.860Z,11.98
2023-04-10T10:55:36.598Z,12.57
2023-04-10T10:58:09.352Z,11.35
2023-04-10T11:03:52.953Z,11.88
2023-04-10T11:06:58.289Z,11.40
2023-04-10T11:09:53.161Z,11.48
2023-04-10T11:12:30.399Z,12.05
2023-04-10T11:15:09.553Z,11.40
2023-04-10T11:17:56.144Z,11.57
2023-04-10T11:20:56.950Z,11.32
2023-04-10T11:23:32.968Z,11.88
2023-04-10T11:25:59.881Z,11.20
2023-04-10T11:37:32.426Z,10.07
2023-04-10T12:42:55.062Z,6.32
2023-04-10T12:45:45.615Z,6.20
2023-04-10T12:48:26.709Z,6.88
2023-04-10T12:50:59.253Z,6.32
2023-04-10T12:53:32.958Z,8.13
2023-04-10T12:56:08.919Z,7.35
2023-04-10T12:58:35.639Z,6.45
2023-04-10T13:01:14.143Z,6.10
2023-04-10T13:03:49.056Z,7.03
2023-04-10T13:06:22.117Z,6.57
2023-04-10T13:08:55.331Z,5.97
2023-04-10T13:11:23.168Z,6.60
2023-04-10T13:13:50.154Z,6.15
2023-04-10T13:16:17.283Z,8.60
2023-04-10T13:18:51.190Z,7.03
2023-04-10T13:46:27.367Z,6.90
2023-04-10T15:09:38.865Z,8.23
2023-04-10T15:12:08.824Z,5.70
2023-04-10T15:14:35.647Z,5.45
2023-04-10T15:17:17.393Z,5.43
2023-04-10T15:19:44.238Z,5.85
2023-04-10T15:22:12.939Z,6.30
2023-04-10T15:30:08.558Z,8.15
2023-04-10T15:32:41.243Z,7.25
2023-04-10T16:30:02.568Z,6.68
2023-04-10T16:32:31.559Z,6.78
2023-04-10T16:34:59.078Z,6.85
2023-04-10T16:48:43.960Z,6.38
2023-04-10T17:13:26.009Z,8.88
2023-04-10T17:21:55.892Z,8.13
2023-04-10T17:24:31.602Z,7.75
2023-04-10T17:27:14.353Z,7.43
2023-04-10T17:32:36.738Z,7.35
2023-04-10T18:16:30.997Z,8.18
2023-04-10T18:19:01.096Z,8.10
2023-04-10T18:21:34.540Z,8.32
2023-04-10T18:24:01.461Z,9.30
2023-04-10T18:37:31.749Z,8.52
2023-04-10T18:40:09.872Z,7.65
2023-04-10T18:42:48.438Z,8.30
2023-04-10T18:45:22.045Z,8.15
2023-04-10T18:47:51.650Z,7.93
2023-04-10T18:58:42.153Z,8.38
2023-04-10T19:23:34.279Z,8.43
2023-04-10T19:26:04.143Z,9.18
2023-04-10T19:28:30.998Z,7.63
2023-04-10T20:13:12.231Z,9.48
2023-04-10T20:51:42.612Z,9.20
2023-04-10T20:59:33.095Z,10.13
2023-04-10T21:13:08.114Z,9.35
2023-04-10T21:59:34.919Z,8.18
2023-04-10T22:02:01.627Z,8.10
2023-04-10T22:59:38.278Z,10.23
2023-04-10T23:02:07.765Z,9.60
2023-04-10T23:04:35.135Z,8.68
2023-04-10T23:07:01.887Z,11.18
2023-04-10T23:09:31.835Z,8.90
2023-04-10T23:11:58.532Z,8.73
2023-04-10T23:14:25.387Z,9.75
2023-04-10T23:16:52.316Z,11.55
2023-04-10T23:19:22.360Z,12.00
2023-04-10T23:21:49.381Z,10.52
2023-04-10T23:24:16.379Z,10.45
2023-04-10T23:26:48.297Z,12.98
2023-04-10T23:29:15.296Z,11.38
2023-04-10T23:31:47.322Z,12.60
2023-04-10T23:34:18.861Z,11.77
2023-04-10T23:36:50.144Z,13.93
2023-04-10T23:39:16.986Z,11.90
2023-04-10T23:41:46.252Z,11.90
2023-04-10T23:44:12.975Z,10.45
2023-04-10T23:46:47.261Z,10.75
2023-04-10T23:51:59.874Z,10.43
2023-04-10T23:54:27.132Z,9.75
